Terminal Aerodrome Forecast
Issued by NWS Brownsville, TX

Home | Current Version | Previous Version | Text Only | Print | Product List | Glossary On
Versions: 1 2 3 4 5 6 7 8 9 10 11 12 13 14
000
FTUS44 KBRO 280500
TAFBRO
TAF
KBRO 280520Z 2806/2906 34003KT P6SM SCT018
     FM280800 35006KT P6SM VCSH BKN020 BKN120
     FM281500 07012G18KT P6SM VCTS SCT025CB BKN040
      TEMPO 2815/2819 3SM TSRA BKN020CB
     FM290300 12010KT P6SM -RA BKN020=

USA.gov is the U.S. government's official web portal to all federal, state and local government web resources and services.